createdAt,value
2019-04-29T00:01:50.970Z,10.48
2019-04-29T00:04:18.258Z,10.60
2019-04-29T00:06:45.574Z,10.95
2019-04-29T00:09:14.606Z,9.18
2019-04-29T00:11:41.881Z,9.70
2019-04-29T00:14:09.197Z,9.83
2019-04-29T00:16:38.143Z,13.13
2019-04-29T00:19:09.850Z,16.73
2019-04-29T00:21:37.396Z,10.75
2019-04-29T00:24:04.725Z,13.98
2019-04-29T00:26:32.089Z,11.40
2019-04-29T00:28:59.369Z,10.45
2019-04-29T00:31:26.767Z,11.05
2019-04-29T00:33:54.056Z,11.15
2019-04-29T00:36:22.985Z,12.73
2019-04-29T00:39:08.248Z,14.03
2019-04-29T00:41:37.212Z,10.60
2019-04-29T00:44:06.129Z,13.03
2019-04-29T00:46:33.435Z,10.10
2019-04-29T00:49:00.740Z,10.90
2019-04-29T00:51:28.046Z,11.30
2019-04-29T00:53:57.012Z,13.43
2019-04-29T00:56:24.311Z,10.55
2019-04-29T00:58:51.622Z,11.15
2019-04-29T01:01:20.582Z,10.98
2019-04-29T01:03:47.880Z,10.32
2019-04-29T01:06:15.166Z,14.23
2019-04-29T01:08:42.479Z,10.65
2019-04-29T01:11:09.771Z,15.15
2019-04-29T01:13:37.100Z,10.98
2019-04-29T01:16:04.408Z,11.08
2019-04-29T01:18:31.724Z,15.95
2019-04-29T01:20:59.018Z,10.78
2019-04-29T01:23:26.306Z,10.68
2019-04-29T01:25:55.256Z,11.08
2019-04-29T01:28:40.402Z,16.27
2019-04-29T01:31:09.412Z,10.50
2019-04-29T01:33:36.647Z,10.08
2019-04-29T01:36:17.559Z,13.88
2019-04-29T01:38:45.041Z,9.98
2019-04-29T01:41:32.110Z,10.10
2019-04-29T01:44:03.858Z,10.55
2019-04-29T01:46:31.145Z,11.53
2019-04-29T01:48:58.458Z,11.70
2019-04-29T01:51:25.759Z,10.75
2019-04-29T01:53:53.059Z,10.23
2019-04-29T01:56:20.386Z,10.93
2019-04-29T01:58:47.755Z,11.30
2019-04-29T02:01:15.074Z,11.68
2019-04-29T02:03:42.425Z,14.33
2019-04-29T02:06:09.737Z,10.75
2019-04-29T02:08:37.030Z,13.48
2019-04-29T02:11:04.329Z,12.73
2019-04-29T02:13:31.657Z,11.08
2019-04-29T02:15:58.950Z,12.05
2019-04-29T02:18:26.242Z,11.38
2019-04-29T02:20:53.552Z,11.63
2019-04-29T02:23:25.262Z,11.18
2019-04-29T02:25:52.560Z,14.53
2019-04-29T02:28:19.872Z,13.03
2019-04-29T02:30:48.454Z,14.07
2019-04-29T02:33:15.755Z,12.75
2019-04-29T02:35:43.041Z,11.85
2019-04-29T02:38:28.056Z,15.30
2019-04-29T02:41:02.907Z,12.47
2019-04-29T02:43:37.407Z,12.50
2019-04-29T02:46:04.719Z,11.53
2019-04-29T02:48:34.733Z,12.50
2019-04-29T02:51:00.995Z,11.60
2019-04-29T02:53:28.306Z,12.15
2019-04-29T02:55:57.262Z,11.20
2019-04-29T02:58:41.161Z,12.35
2019-04-29T03:01:26.232Z,11.28
2019-04-29T03:03:55.159Z,11.45
2019-04-29T03:06:22.473Z,11.63
2019-04-29T03:08:49.794Z,13.68
2019-04-29T03:11:17.091Z,12.63
2019-04-29T03:13:44.426Z,12.65
2019-04-29T03:16:11.722Z,13.62
2019-04-29T03:18:40.681Z,13.10
2019-04-29T03:21:09.633Z,11.35
2019-04-29T03:23:36.951Z,13.13
2019-04-29T03:26:04.258Z,11.90
2019-04-29T03:28:31.573Z,12.30
2019-04-29T03:30:58.872Z,12.13
2019-04-29T03:33:26.158Z,12.50
2019-04-29T03:35:53.497Z,13.40
2019-04-29T03:38:20.779Z,13.65
2019-04-29T03:40:48.068Z,11.78
2019-04-29T03:43:15.381Z,10.78
2019-04-29T03:45:42.710Z,11.53
2019-04-29T03:48:10.002Z,10.75
2019-04-29T03:50:37.283Z,9.73
2019-04-29T03:53:04.602Z,10.75
2019-04-29T03:55:39.918Z,10.55
2019-04-29T03:58:00.849Z,11.60
2019-04-29T04:00:28.134Z,11.85
2019-04-29T04:03:13.312Z,11.60
2019-04-29T04:05:48.015Z,11.18
2019-04-29T04:08:17.144Z,10.90
2019-04-29T04:10:44.453Z,10.98
2019-04-29T04:13:11.747Z,12.85
2019-04-29T04:15:39.069Z,10.72
2019-04-29T04:18:10.551Z,12.70
2019-04-29T04:20:37.911Z,9.75
2019-04-29T04:23:05.228Z,10.48
2019-04-29T04:25:32.525Z,10.78
2019-04-29T04:27:59.839Z,11.57
2019-04-29T04:30:27.125Z,12.03
2019-04-29T04:32:54.434Z,9.85
2019-04-29T04:35:21.742Z,10.72
2019-04-29T04:37:49.076Z,10.85
2019-04-29T04:40:18.677Z,11.65
2019-04-29T04:42:45.970Z,10.53
2019-04-29T04:45:13.353Z,10.72
2019-04-29T04:47:40.675Z,14.50
2019-04-29T04:50:07.982Z,11.97
2019-04-29T04:52:35.295Z,13.32
2019-04-29T04:55:02.817Z,12.07
2019-04-29T04:57:30.116Z,11.45
2019-04-29T04:59:57.449Z,10.72
2019-04-29T05:02:26.017Z,12.18
2019-04-29T05:04:53.315Z,11.18
2019-04-29T05:07:20.629Z,9.85
2019-04-29T05:09:47.922Z,9.88
2019-04-29T05:12:15.209Z,10.88
2019-04-29T05:14:42.530Z,10.08
2019-04-29T05:17:09.818Z,11.35
2019-04-29T05:19:37.138Z,11.93
2019-04-29T05:22:04.442Z,11.83
2019-04-29T05:24:31.757Z,11.55
2019-04-29T05:26:59.043Z,9.63
2019-04-29T05:29:28.681Z,10.23
2019-04-29T05:31:55.280Z,10.53
2019-04-29T05:34:24.450Z,12.37
2019-04-29T05:36:53.409Z,12.75
2019-04-29T05:39:34.455Z,11.65
2019-04-29T05:42:01.783Z,12.53
2019-04-29T05:44:30.730Z,12.73
2019-04-29T05:47:02.664Z,10.70
2019-04-29T05:49:31.614Z,11.18
2019-04-29T05:52:01.997Z,9.83
2019-04-29T05:54:31.898Z,10.68
2019-04-29T05:57:00.346Z,13.60
2019-04-29T05:59:27.656Z,10.10
2019-04-29T06:01:54.942Z,9.43
2019-04-29T06:04:22.261Z,8.10
2019-04-29T06:06:49.546Z,9.65
2019-04-29T06:09:18.335Z,12.10
2019-04-29T06:11:45.765Z,15.68
2019-04-29T06:14:13.064Z,11.70
2019-04-29T06:16:40.383Z,12.15
2019-04-29T06:19:07.670Z,10.80
2019-04-29T06:21:34.991Z,12.43
2019-04-29T06:24:04.159Z,10.88
2019-04-29T06:26:31.226Z,11.73
2019-04-29T06:28:58.551Z,10.78
2019-04-29T06:31:25.835Z,9.33
2019-04-29T06:33:53.137Z,12.20
2019-04-29T06:36:20.456Z,10.13
2019-04-29T06:38:47.750Z,9.40
2019-04-29T06:41:15.039Z,9.28
2019-04-29T06:43:42.362Z,7.78
2019-04-29T06:46:09.650Z,9.58
2019-04-29T06:48:36.972Z,10.35
2019-04-29T06:51:04.255Z,11.15
2019-04-29T06:53:31.554Z,9.83
2019-04-29T06:55:58.861Z,7.95
2019-04-29T06:58:26.167Z,9.43
2019-04-29T07:00:55.743Z,11.97
2019-04-29T07:03:25.467Z,9.38
2019-04-29T07:05:52.241Z,11.25
2019-04-29T07:08:19.607Z,13.08
2019-04-29T07:10:46.919Z,10.45
2019-04-29T07:13:17.991Z,8.00
2019-04-29T07:15:43.561Z,7.78
2019-04-29T07:18:12.125Z,10.00
2019-04-29T07:20:39.418Z,8.15
2019-04-29T07:23:06.735Z,10.23
2019-04-29T07:25:34.027Z,8.00
2019-04-29T07:28:01.332Z,10.98
2019-04-29T07:30:29.389Z,9.15
2019-04-29T07:32:56.862Z,12.88
2019-04-29T07:35:24.166Z,11.97
2019-04-29T07:37:51.492Z,10.80
2019-04-29T07:40:18.790Z,16.90
2019-04-29T07:42:46.088Z,8.90
2019-04-29T07:45:28.012Z,13.20
2019-04-29T07:47:56.682Z,11.20
2019-04-29T07:50:26.899Z,8.78
2019-04-29T07:52:52.538Z,13.58
2019-04-29T07:55:19.827Z,8.15
2019-04-29T07:57:47.709Z,11.83
2019-04-29T08:00:16.106Z,7.90
2019-04-29T08:02:43.418Z,10.48
2019-04-29T08:05:10.733Z,8.10
2019-04-29T08:07:38.071Z,12.05
2019-04-29T08:10:22.497Z,11.48
2019-04-29T08:12:35.131Z,13.00
2019-04-29T08:15:07.778Z,10.40
2019-04-29T08:17:32.780Z,7.62
2019-04-29T08:20:00.595Z,8.45
2019-04-29T08:22:29.356Z,11.65
2019-04-29T08:24:56.698Z,10.38
2019-04-29T08:27:24.012Z,9.18
2019-04-29T08:29:51.326Z,13.20
2019-04-29T08:32:18.661Z,9.68
2019-04-29T08:34:45.990Z,8.60
2019-04-29T08:37:13.311Z,6.58
2019-04-29T08:39:40.636Z,9.45
2019-04-29T08:42:09.617Z,11.43
2019-04-29T08:44:50.587Z,11.12
2019-04-29T08:47:22.931Z,10.20
2019-04-29T08:49:48.538Z,9.70
2019-04-29T08:52:15.808Z,15.25
2019-04-29T08:54:43.114Z,11.12
2019-04-29T08:57:10.605Z,9.10
2019-04-29T08:59:37.905Z,15.68
2019-04-29T09:02:10.026Z,10.00
2019-04-29T09:04:35.314Z,11.03
2019-04-29T09:07:12.468Z,7.62
2019-04-29T09:09:31.667Z,10.20
2019-04-29T09:11:58.980Z,12.07
2019-04-29T09:14:26.287Z,8.28
2019-04-29T09:16:53.661Z,13.03
2019-04-29T09:19:20.962Z,8.38
2019-04-29T09:21:49.918Z,16.82
2019-04-29T09:24:17.241Z,9.95
2019-04-29T09:26:46.192Z,10.58
2019-04-29T09:29:31.494Z,8.35
2019-04-29T09:31:58.816Z,9.10
2019-04-29T09:34:26.494Z,12.98
2019-04-29T09:36:53.866Z,10.15
2019-04-29T09:39:21.469Z,10.35
2019-04-29T09:41:59.291Z,13.50
2019-04-29T09:44:45.001Z,12.55
2019-04-29T09:47:13.010Z,10.60
2019-04-29T09:49:40.320Z,9.98
2019-04-29T09:52:07.641Z,13.88
2019-04-29T09:54:35.016Z,13.55
2019-04-29T09:57:02.319Z,13.08
2019-04-29T09:59:37.311Z,10.93
2019-04-29T10:02:18.418Z,11.18
2019-04-29T10:04:56.900Z,12.68
2019-04-29T10:07:19.462Z,13.50
2019-04-29T10:09:57.139Z,14.45
2019-04-29T10:12:15.809Z,10.00
2019-04-29T10:14:43.137Z,13.10
2019-04-29T10:17:15.403Z,10.65
2019-04-29T10:19:48.498Z,12.90
2019-04-29T10:22:15.846Z,12.23
2019-04-29T10:24:43.146Z,11.50
2019-04-29T10:27:10.464Z,11.68
2019-04-29T10:29:38.358Z,13.32
2019-04-29T10:32:08.589Z,12.23
2019-04-29T10:34:35.988Z,14.83
2019-04-29T10:37:03.303Z,13.70
2019-04-29T10:39:32.259Z,15.95
2019-04-29T10:42:01.473Z,18.80
2019-04-29T10:44:33.378Z,15.60
2019-04-29T10:47:09.897Z,12.78
2019-04-29T10:49:39.420Z,12.20
2019-04-29T10:52:07.747Z,14.23
2019-04-29T10:54:35.453Z,16.10
2019-04-29T10:57:02.774Z,13.03
2019-04-29T10:59:35.916Z,13.15
2019-04-29T11:02:09.316Z,11.93
2019-04-29T11:04:36.301Z,14.73
2019-04-29T11:07:13.880Z,11.85
2019-04-29T11:09:38.221Z,9.63
2019-04-29T11:12:08.816Z,8.75
2019-04-29T11:14:37.592Z,9.83
2019-04-29T11:17:16.192Z,10.03
2019-04-29T11:19:39.843Z,10.58
2019-04-29T11:22:07.270Z,10.78
2019-04-29T11:24:40.628Z,12.35
2019-04-29T11:27:18.330Z,10.48
2019-04-29T11:29:46.693Z,10.30
2019-04-29T11:32:20.009Z,9.08
2019-04-29T11:34:53.462Z,10.40
2019-04-29T11:37:20.276Z,16.65
2019-04-29T11:39:50.360Z,10.45
2019-04-29T11:42:18.503Z,18.42
2019-04-29T11:44:47.255Z,8.35
2019-04-29T11:47:15.898Z,14.15
2019-04-29T11:49:47.954Z,11.70
2019-04-29T11:52:15.115Z,11.48
2019-04-29T11:54:43.342Z,6.40
2019-04-29T11:57:13.111Z,13.43
2019-04-29T12:00:01.431Z,16.70
2019-04-29T12:02:44.576Z,9.73
2019-04-29T12:05:04.264Z,9.68
2019-04-29T12:07:36.058Z,14.47
2019-04-29T12:10:06.559Z,14.18
2019-04-29T12:12:33.921Z,35.20
2019-04-29T12:15:13.656Z,19.02
2019-04-29T12:17:53.436Z,8.38
2019-04-29T12:20:28.263Z,14.58
2019-04-29T12:22:59.076Z,13.22
2019-04-29T12:25:29.330Z,18.45
2019-04-29T12:28:01.604Z,14.38
2019-04-29T12:30:34.021Z,17.20
2019-04-29T12:33:06.868Z,10.43
2019-04-29T12:35:51.806Z,12.03
2019-04-29T12:38:17.306Z,18.57
2019-04-29T12:40:50.168Z,14.80
2019-04-29T12:43:19.015Z,16.50
2019-04-29T12:45:48.618Z,11.73
2019-04-29T12:48:24.479Z,14.05
2019-04-29T12:50:51.120Z,13.55
2019-04-29T12:53:19.488Z,11.15
2019-04-29T12:55:53.364Z,14.15
2019-04-29T12:58:25.632Z,16.05
2019-04-29T13:01:00.588Z,18.87
2019-04-29T13:03:39.212Z,27.00
2019-04-29T13:06:02.753Z,18.67
2019-04-29T13:08:34.182Z,15.53
2019-04-29T13:11:05.581Z,17.73
2019-04-29T13:13:33.615Z,20.52
2019-04-29T13:16:03.502Z,18.48
2019-04-29T13:18:48.830Z,20.88
2019-04-29T13:21:17.140Z,19.82
2019-04-29T13:23:55.509Z,14.60
2019-04-29T13:26:27.369Z,17.70
2019-04-29T13:29:00.297Z,18.02
2019-04-29T13:31:20.537Z,17.90
2019-04-29T13:33:50.874Z,20.17
2019-04-29T13:36:25.315Z,16.23
2019-04-29T13:38:48.583Z,30.70
2019-04-29T13:41:23.653Z,17.80
2019-04-29T13:43:46.906Z,30.23
2019-04-29T13:46:16.831Z,19.65
2019-04-29T13:49:12.123Z,21.10
2019-04-29T13:51:38.836Z,21.82
2019-04-29T13:54:07.066Z,21.57
2019-04-29T13:56:54.182Z,19.12
2019-04-29T13:59:11.028Z,19.12
2019-04-29T14:01:58.401Z,22.37
2019-04-29T14:04:24.694Z,20.35
2019-04-29T14:06:57.224Z,18.98
2019-04-29T14:09:20.139Z,19.75
2019-04-29T14:12:01.077Z,20.57
2019-04-29T14:14:17.909Z,22.55
2019-04-29T14:16:47.606Z,19.73
2019-04-29T14:19:14.369Z,18.62
2019-04-29T14:21:43.566Z,22.90
2019-04-29T14:24:10.693Z,24.07
2019-04-29T14:26:41.866Z,21.97
2019-04-29T14:29:06.978Z,22.87
2019-04-29T14:31:34.290Z,17.90
2019-04-29T14:34:21.297Z,18.90
2019-04-29T14:36:48.625Z,18.32
2019-04-29T14:39:18.972Z,26.12
2019-04-29T14:41:46.557Z,20.80
2019-04-29T14:44:31.666Z,22.13
2019-04-29T14:47:06.326Z,20.15
2019-04-29T14:49:39.865Z,20.10
2019-04-29T14:52:08.269Z,26.50
2019-04-29T14:54:36.862Z,22.22
2019-04-29T14:57:04.944Z,27.45
2019-04-29T14:59:32.370Z,24.92
2019-04-29T15:02:01.511Z,25.60
2019-04-29T15:04:30.560Z,26.48
2019-04-29T15:06:57.841Z,19.62
2019-04-29T15:09:25.139Z,20.35
2019-04-29T15:11:54.207Z,26.73
2019-04-29T15:14:35.095Z,24.60
2019-04-29T15:17:20.328Z,26.15
2019-04-29T15:19:55.416Z,27.32
2019-04-29T15:22:24.537Z,33.00
2019-04-29T15:24:51.810Z,53.33
2019-04-29T15:27:19.159Z,39.78
2019-04-29T15:29:46.472Z,60.85
2019-04-29T15:32:13.794Z,215.52
2019-04-29T15:34:43.929Z,170.85
2019-04-29T15:37:11.769Z,77.08
2019-04-29T15:39:40.751Z,250.75
2019-04-29T15:42:08.892Z,149.82
2019-04-29T15:44:36.632Z,39.03
2019-04-29T15:47:03.956Z,416.05
2019-04-29T15:49:31.294Z,40.92
2019-04-29T15:51:58.601Z,54.65
2019-04-29T15:54:26.265Z,221.97
2019-04-29T15:56:53.755Z,57.98
2019-04-29T15:59:21.075Z,39.63
2019-04-29T16:01:48.439Z,150.60
2019-04-29T16:04:20.846Z,49.67
2019-04-29T16:06:47.976Z,1414.15
2019-04-29T16:09:16.969Z,103.30
2019-04-29T16:11:54.625Z,673.70
2019-04-29T16:14:23.649Z,771.20
2019-04-29T16:16:50.969Z,67.70
2019-04-29T16:19:18.286Z,54.15
2019-04-29T16:21:45.654Z,1999.90
2019-04-29T16:24:25.961Z,1999.90
2019-04-29T16:26:41.947Z,1778.28
2019-04-29T16:31:38.269Z,424.80
2019-04-29T16:34:05.626Z,187.15
2019-04-29T16:36:33.009Z,886.17
2019-04-29T16:39:00.332Z,398.62
2019-04-29T16:41:35.123Z,1999.90
2019-04-29T16:44:02.523Z,1999.90
2019-04-29T16:46:37.284Z,815.08
2019-04-29T16:49:00.482Z,1971.48
2019-04-29T16:51:27.816Z,1999.90
2019-04-29T16:53:55.140Z,569.77
2019-04-29T16:56:22.475Z,349.45
2019-04-29T16:58:49.843Z,1153.08
2019-04-29T17:01:17.169Z,281.52
2019-04-29T17:03:44.509Z,206.25
2019-04-29T17:06:11.829Z,79.75
2019-04-29T17:09:03.072Z,219.45
2019-04-29T17:11:32.574Z,100.07
2019-04-29T17:14:03.331Z,157.22
2019-04-29T17:16:29.724Z,148.90
2019-04-29T17:18:57.062Z,180.27
2019-04-29T17:21:25.051Z,81.42
2019-04-29T17:23:52.381Z,130.70
2019-04-29T17:26:21.343Z,331.05
2019-04-29T17:28:53.011Z,334.52
2019-04-29T17:31:22.461Z,182.10
2019-04-29T17:33:55.064Z,102.65
2019-04-29T17:35:16.794Z,1999.90
2019-04-29T17:36:24.073Z,123.80
2019-04-29T17:38:51.639Z,95.42
2019-04-29T17:41:19.030Z,92.30
2019-04-29T17:44:04.354Z,88.62
2019-04-29T17:46:33.354Z,144.00
2019-04-29T17:49:11.487Z,210.95
2019-04-29T17:51:38.829Z,66.37
2019-04-29T17:54:07.806Z,130.47
2019-04-29T17:56:39.782Z,85.20
2019-04-29T17:59:15.784Z,65.00
2019-04-29T18:01:47.444Z,162.82
2019-04-29T18:04:36.019Z,120.47
2019-04-29T18:07:16.830Z,63.15
2019-04-29T18:09:47.546Z,90.85
2019-04-29T18:12:16.560Z,94.87
2019-04-29T18:14:44.745Z,53.25
2019-04-29T18:17:24.196Z,78.47
2019-04-29T18:19:45.185Z,82.42
2019-04-29T18:22:16.226Z,79.62
2019-04-29T18:24:45.339Z,81.00
2019-04-29T18:27:15.286Z,57.88
2019-04-29T18:29:43.099Z,60.43
2019-04-29T18:32:10.553Z,57.75
2019-04-29T18:34:37.878Z,63.52
2019-04-29T18:37:06.454Z,68.10
2019-04-29T18:39:34.608Z,80.32
2019-04-29T18:42:03.123Z,60.12
2019-04-29T18:44:30.992Z,71.20
2019-04-29T18:46:58.346Z,57.75
2019-04-29T18:49:25.876Z,58.83
2019-04-29T18:51:53.267Z,62.53
2019-04-29T18:54:20.569Z,49.85
2019-04-29T18:56:47.893Z,52.55
2019-04-29T18:59:18.208Z,39.98
2019-04-29T19:01:45.008Z,37.30
2019-04-29T19:04:19.076Z,40.10
2019-04-29T19:06:45.890Z,46.53
2019-04-29T19:09:20.063Z,36.88
2019-04-29T19:11:43.254Z,33.35
2019-04-29T19:14:10.611Z,38.30
2019-04-29T19:16:39.397Z,37.83
2019-04-29T19:19:06.830Z,41.55
2019-04-29T19:21:34.243Z,37.45
2019-04-29T19:24:01.568Z,43.00
2019-04-29T19:26:28.869Z,43.28
2019-04-29T19:28:56.810Z,41.30
2019-04-29T19:31:25.178Z,37.85
2019-04-29T19:33:52.666Z,35.20
2019-04-29T19:36:21.763Z,35.20
2019-04-29T19:38:48.993Z,37.67
2019-04-29T19:41:18.088Z,38.70
2019-04-29T19:43:48.359Z,31.40
2019-04-29T19:46:22.635Z,33.35
2019-04-29T19:48:45.003Z,33.42
2019-04-29T19:51:16.013Z,32.95
2019-04-29T19:53:42.555Z,36.93
2019-04-29T19:56:12.650Z,34.70
2019-04-29T19:58:39.564Z,32.67
2019-04-29T20:01:13.899Z,33.23
2019-04-29T20:03:41.635Z,31.33
2019-04-29T20:06:24.425Z,33.10
2019-04-29T20:08:53.979Z,27.87
2019-04-29T20:11:15.090Z,29.45
2019-04-29T20:13:42.620Z,29.52
2019-04-29T20:16:13.922Z,31.87
2019-04-29T20:19:00.971Z,28.85
2019-04-29T20:21:28.199Z,28.98
2019-04-29T20:23:53.215Z,29.55
2019-04-29T20:26:28.956Z,28.15
2019-04-29T20:28:51.052Z,26.90
2019-04-29T20:31:21.950Z,27.65
2019-04-29T20:33:48.547Z,29.35
2019-04-29T20:36:17.506Z,27.58
2019-04-29T20:38:45.438Z,28.98
2019-04-29T20:41:20.985Z,27.48
2019-04-29T20:43:41.922Z,27.58
2019-04-29T20:46:09.353Z,25.62
2019-04-29T20:48:37.172Z,26.07
2019-04-29T20:51:12.909Z,26.70
2019-04-29T20:53:38.761Z,28.70
2019-04-29T20:56:11.977Z,25.72
2019-04-29T20:58:33.423Z,26.23
2019-04-29T21:01:03.111Z,25.12
2019-04-29T21:03:32.310Z,24.00
2019-04-29T21:06:02.560Z,22.52
2019-04-29T21:08:27.804Z,24.37
2019-04-29T21:10:56.806Z,25.55
2019-04-29T21:13:37.833Z,26.42
2019-04-29T21:16:09.787Z,26.68
2019-04-29T21:18:38.810Z,27.07
2019-04-29T21:21:07.875Z,25.68
2019-04-29T21:23:36.620Z,29.07
2019-04-29T21:26:05.455Z,28.23
2019-04-29T21:28:38.244Z,28.75
2019-04-29T21:31:01.949Z,25.43
2019-04-29T21:33:31.220Z,27.27
2019-04-29T21:35:59.901Z,27.15
2019-04-29T21:38:48.373Z,24.15
2019-04-29T21:41:23.440Z,26.80
2019-04-29T21:43:53.426Z,27.42
2019-04-29T21:46:27.811Z,24.05
2019-04-29T21:48:50.384Z,23.83
2019-04-29T21:51:17.716Z,26.85
2019-04-29T21:53:45.894Z,26.52
2019-04-29T21:56:13.278Z,23.95
2019-04-29T21:58:40.618Z,26.95
2019-04-29T22:01:08.199Z,26.48
2019-04-29T22:03:35.523Z,24.87
2019-04-29T22:06:02.859Z,27.35
2019-04-29T22:08:30.249Z,29.70
2019-04-29T22:11:04.389Z,26.35
2019-04-29T22:13:26.548Z,25.62
2019-04-29T22:15:53.867Z,26.85
2019-04-29T22:18:21.200Z,26.77
2019-04-29T22:20:48.553Z,25.27
2019-04-29T22:23:17.297Z,23.38
2019-04-29T22:25:45.694Z,22.67
2019-04-29T22:28:16.031Z,25.68
2019-04-29T22:30:42.688Z,22.93
2019-04-29T22:33:09.995Z,22.98
2019-04-29T22:35:40.615Z,23.70
2019-04-29T22:38:07.709Z,21.90
2019-04-29T22:40:40.935Z,24.00
2019-04-29T22:43:10.131Z,24.50
2019-04-29T22:45:35.623Z,22.48
2019-04-29T22:48:14.695Z,23.32
2019-04-29T22:50:33.761Z,22.55
2019-04-29T22:53:01.209Z,26.52
2019-04-29T22:55:30.916Z,27.42
2019-04-29T22:58:00.922Z,24.43
2019-04-29T23:00:32.734Z,25.97
2019-04-29T23:03:02.239Z,25.08
2019-04-29T23:05:27.957Z,25.50
2019-04-29T23:07:59.665Z,25.00
2019-04-29T23:10:27.909Z,24.40
2019-04-29T23:12:57.480Z,24.65
2019-04-29T23:15:24.179Z,23.45
2019-04-29T23:17:52.226Z,24.15
2019-04-29T23:20:25.447Z,25.25
2019-04-29T23:23:07.648Z,23.67
2019-04-29T23:25:36.643Z,24.85
2019-04-29T23:28:04.214Z,24.87
2019-04-29T23:30:31.645Z,25.75
2019-04-29T23:32:58.955Z,26.02
2019-04-29T23:35:26.350Z,29.10
2019-04-29T23:37:58.727Z,27.40
2019-04-29T23:40:22.718Z,24.12
2019-04-29T23:42:50.044Z,24.65
2019-04-29T23:45:21.230Z,25.37
2019-04-29T23:47:50.241Z,25.10
2019-04-29T23:50:18.760Z,25.52
2019-04-29T23:52:47.906Z,23.22
2019-04-29T23:55:13.280Z,25.50
2019-04-29T23:57:45.989Z,24.07
